sensor_id;sensor_type;location;lat;lon;timestamp;P1;durP1;ratioP1;P2;durP2;ratioP2
67585;SDS011;55785;47.946;20.540;2022-12-07T00:01:28;5.80;;;3.90;;
67585;SDS011;55785;47.946;20.540;2022-12-07T00:03:54;4.63;;;2.93;;
67585;SDS011;55785;47.946;20.540;2022-12-07T00:06:22;5.87;;;3.77;;
67585;SDS011;55785;47.946;20.540;2022-12-07T00:08:48;6.67;;;3.87;;
67585;SDS011;55785;47.946;20.540;2022-12-07T00:11:17;6.77;;;4.00;;
67585;SDS011;55785;47.946;20.540;2022-12-07T00:13:44;6.43;;;4.00;;
67585;SDS011;55785;47.946;20.540;2022-12-07T00:16:11;6.17;;;3.87;;
67585;SDS011;55785;47.946;20.540;2022-12-07T00:18:38;5.70;;;3.80;;
67585;SDS011;55785;47.946;20.540;2022-12-07T00:21:04;6.27;;;4.00;;
67585;SDS011;55785;47.946;20.540;2022-12-07T00:23:31;6.70;;;4.43;;
67585;SDS011;55785;47.946;20.540;2022-12-07T00:26:07;6.90;;;4.37;;
67585;SDS011;55785;47.946;20.540;2022-12-07T00:28:34;6.27;;;3.87;;
67585;SDS011;55785;47.946;20.540;2022-12-07T00:31:00;7.20;;;4.07;;
67585;SDS011;55785;47.946;20.540;2022-12-07T00:33:34;8.73;;;5.33;;
67585;SDS011;55785;47.946;20.540;2022-12-07T00:36:00;10.93;;;4.60;;
67585;SDS011;55785;47.946;20.540;2022-12-07T00:38:30;8.50;;;4.43;;
67585;SDS011;55785;47.946;20.540;2022-12-07T00:41:00;7.70;;;4.80;;
67585;SDS011;55785;47.946;20.540;2022-12-07T00:43:28;8.67;;;5.43;;
67585;SDS011;55785;47.946;20.540;2022-12-07T00:45:54;9.33;;;5.33;;
67585;SDS011;55785;47.946;20.540;2022-12-07T00:48:20;10.70;;;5.27;;
67585;SDS011;55785;47.946;20.540;2022-12-07T00:50:46;8.17;;;5.10;;
67585;SDS011;55785;47.946;20.540;2022-12-07T00:53:11;7.20;;;4.30;;
67585;SDS011;55785;47.946;20.540;2022-12-07T00:55:37;7.63;;;4.67;;
67585;SDS011;55785;47.946;20.540;2022-12-07T00:58:03;8.53;;;4.60;;
67585;SDS011;55785;47.946;20.540;2022-12-07T01:00:28;7.27;;;4.50;;
67585;SDS011;55785;47.946;20.540;2022-12-07T01:02:54;8.77;;;4.70;;
67585;SDS011;55785;47.946;20.540;2022-12-07T01:05:20;8.73;;;4.63;;
67585;SDS011;55785;47.946;20.540;2022-12-07T01:07:45;8.10;;;4.70;;
67585;SDS011;55785;47.946;20.540;2022-12-07T01:10:10;6.70;;;4.33;;
67585;SDS011;55785;47.946;20.540;2022-12-07T01:12:36;8.47;;;5.03;;
67585;SDS011;55785;47.946;20.540;2022-12-07T01:15:01;9.53;;;5.00;;
67585;SDS011;55785;47.946;20.540;2022-12-07T01:17:27;8.57;;;5.10;;
67585;SDS011;55785;47.946;20.540;2022-12-07T01:19:53;8.57;;;4.90;;
67585;SDS011;55785;47.946;20.540;2022-12-07T01:22:18;7.73;;;4.90;;
67585;SDS011;55785;47.946;20.540;2022-12-07T01:24:43;7.17;;;4.67;;
67585;SDS011;55785;47.946;20.540;2022-12-07T01:27:09;7.47;;;4.90;;
67585;SDS011;55785;47.946;20.540;2022-12-07T01:29:34;7.63;;;4.93;;
67585;SDS011;55785;47.946;20.540;2022-12-07T01:31:59;8.87;;;5.23;;
67585;SDS011;55785;47.946;20.540;2022-12-07T01:34:24;8.10;;;4.77;;
67585;SDS011;55785;47.946;20.540;2022-12-07T01:36:50;9.07;;;5.43;;
67585;SDS011;55785;47.946;20.540;2022-12-07T01:39:15;9.53;;;5.47;;
67585;SDS011;55785;47.946;20.540;2022-12-07T01:41:40;9.80;;;5.50;;
67585;SDS011;55785;47.946;20.540;2022-12-07T01:44:08;7.87;;;4.80;;
67585;SDS011;55785;47.946;20.540;2022-12-07T01:46:39;8.83;;;4.83;;
67585;SDS011;55785;47.946;20.540;2022-12-07T01:49:07;10.13;;;5.90;;
67585;SDS011;55785;47.946;20.540;2022-12-07T01:51:35;9.63;;;5.60;;
67585;SDS011;55785;47.946;20.540;2022-12-07T01:54:04;10.53;;;6.37;;
67585;SDS011;55785;47.946;20.540;2022-12-07T01:56:29;9.57;;;5.73;;
67585;SDS011;55785;47.946;20.540;2022-12-07T01:58:57;8.33;;;4.93;;
67585;SDS011;55785;47.946;20.540;2022-12-07T02:01:24;9.47;;;5.60;;
67585;SDS011;55785;47.946;20.540;2022-12-07T02:03:50;9.00;;;5.37;;
67585;SDS011;55785;47.946;20.540;2022-12-07T02:06:17;10.07;;;5.57;;
67585;SDS011;55785;47.946;20.540;2022-12-07T02:08:45;9.40;;;5.17;;
67585;SDS011;55785;47.946;20.540;2022-12-07T02:11:11;9.87;;;5.70;;
67585;SDS011;55785;47.946;20.540;2022-12-07T02:13:38;10.37;;;5.83;;
67585;SDS011;55785;47.946;20.540;2022-12-07T02:21:41;9.70;;;5.27;;
67585;SDS011;55785;47.946;20.540;2022-12-07T02:35:11;8.73;;;5.37;;
67585;SDS011;55785;47.946;20.540;2022-12-07T02:40:40;7.32;;;4.63;;
67585;SDS011;55785;47.946;20.540;2022-12-07T02:43:04;7.87;;;4.93;;
67585;SDS011;55785;47.946;20.540;2022-12-07T02:45:36;9.00;;;4.93;;
67585;SDS011;55785;47.946;20.540;2022-12-07T02:48:05;7.70;;;5.00;;
67585;SDS011;55785;47.946;20.540;2022-12-07T02:50:33;9.13;;;5.50;;
67585;SDS011;55785;47.946;20.540;2022-12-07T02:52:59;8.40;;;5.20;;
67585;SDS011;55785;47.946;20.540;2022-12-07T02:55:31;9.93;;;5.23;;
67585;SDS011;55785;47.946;20.540;2022-12-07T02:58:14;7.68;;;5.05;;
67585;SDS011;55785;47.946;20.540;2022-12-07T03:00:54;7.40;;;4.80;;
67585;SDS011;55785;47.946;20.540;2022-12-07T03:03:35;10.57;;;5.07;;
67585;SDS011;55785;47.946;20.540;2022-12-07T03:11:13;7.90;;;4.73;;
67585;SDS011;55785;47.946;20.540;2022-12-07T03:13:44;7.53;;;4.43;;
67585;SDS011;55785;47.946;20.540;2022-12-07T03:16:45;7.67;;;4.60;;
67585;SDS011;55785;47.946;20.540;2022-12-07T03:19:25;8.43;;;4.50;;
67585;SDS011;55785;47.946;20.540;2022-12-07T03:21:56;8.37;;;4.90;;
67585;SDS011;55785;47.946;20.540;2022-12-07T03:24:26;6.77;;;4.20;;
67585;SDS011;55785;47.946;20.540;2022-12-07T03:26:56;8.57;;;4.27;;
67585;SDS011;55785;47.946;20.540;2022-12-07T03:29:28;8.87;;;4.63;;
67585;SDS011;55785;47.946;20.540;2022-12-07T03:32:01;9.83;;;4.87;;
67585;SDS011;55785;47.946;20.540;2022-12-07T03:34:33;8.43;;;5.03;;
67585;SDS011;55785;47.946;20.540;2022-12-07T03:39:35;9.23;;;5.30;;
67585;SDS011;55785;47.946;20.540;2022-12-07T03:42:05;11.60;;;5.97;;
67585;SDS011;55785;47.946;20.540;2022-12-07T03:44:32;12.60;;;6.30;;
67585;SDS011;55785;47.946;20.540;2022-12-07T03:55:04;7.53;;;4.77;;
67585;SDS011;55785;47.946;20.540;2022-12-07T03:57:33;8.40;;;5.00;;
67585;SDS011;55785;47.946;20.540;2022-12-07T04:00:00;10.17;;;5.10;;
67585;SDS011;55785;47.946;20.540;2022-12-07T04:02:28;8.67;;;5.17;;
67585;SDS011;55785;47.946;20.540;2022-12-07T04:04:54;11.60;;;6.60;;
67585;SDS011;55785;47.946;20.540;2022-12-07T04:07:20;13.30;;;7.30;;
67585;SDS011;55785;47.946;20.540;2022-12-07T04:09:46;13.53;;;7.67;;
67585;SDS011;55785;47.946;20.540;2022-12-07T04:12:11;13.50;;;7.40;;
67585;SDS011;55785;47.946;20.540;2022-12-07T04:14:36;11.13;;;6.40;;
67585;SDS011;55785;47.946;20.540;2022-12-07T04:17:02;10.30;;;6.10;;
67585;SDS011;55785;47.946;20.540;2022-12-07T04:19:28;9.97;;;5.40;;
67585;SDS011;55785;47.946;20.540;2022-12-07T04:21:56;9.60;;;5.27;;
67585;SDS011;55785;47.946;20.540;2022-12-07T04:24:23;9.93;;;5.60;;
67585;SDS011;55785;47.946;20.540;2022-12-07T04:26:48;10.43;;;6.07;;
67585;SDS011;55785;47.946;20.540;2022-12-07T04:29:14;10.90;;;5.80;;
67585;SDS011;55785;47.946;20.540;2022-12-07T04:31:40;10.30;;;5.67;;
67585;SDS011;55785;47.946;20.540;2022-12-07T04:34:06;11.17;;;6.57;;
67585;SDS011;55785;47.946;20.540;2022-12-07T04:36:32;11.17;;;6.10;;
67585;SDS011;55785;47.946;20.540;2022-12-07T04:38:58;13.70;;;6.60;;
67585;SDS011;55785;47.946;20.540;2022-12-07T04:41:23;11.67;;;6.47;;
67585;SDS011;55785;47.946;20.540;2022-12-07T04:43:49;11.07;;;6.33;;
67585;SDS011;55785;47.946;20.540;2022-12-07T04:46:14;11.83;;;6.37;;
67585;SDS011;55785;47.946;20.540;2022-12-07T04:48:40;10.57;;;6.23;;
67585;SDS011;55785;47.946;20.540;2022-12-07T04:51:05;13.27;;;7.17;;
67585;SDS011;55785;47.946;20.540;2022-12-07T04:53:30;14.33;;;7.30;;
67585;SDS011;55785;47.946;20.540;2022-12-07T04:55:56;12.20;;;6.13;;
67585;SDS011;55785;47.946;20.540;2022-12-07T04:58:21;12.90;;;7.27;;
67585;SDS011;55785;47.946;20.540;2022-12-07T05:00:46;11.80;;;6.63;;
67585;SDS011;55785;47.946;20.540;2022-12-07T05:03:12;11.10;;;6.57;;
67585;SDS011;55785;47.946;20.540;2022-12-07T05:05:39;13.50;;;6.33;;
67585;SDS011;55785;47.946;20.540;2022-12-07T05:08:05;13.33;;;6.40;;
67585;SDS011;55785;47.946;20.540;2022-12-07T05:10:31;13.10;;;6.40;;
67585;SDS011;55785;47.946;20.540;2022-12-07T05:12:56;16.13;;;7.90;;
67585;SDS011;55785;47.946;20.540;2022-12-07T05:15:21;15.33;;;8.73;;
67585;SDS011;55785;47.946;20.540;2022-12-07T05:17:47;19.03;;;10.37;;
67585;SDS011;55785;47.946;20.540;2022-12-07T05:20:12;17.67;;;8.70;;
67585;SDS011;55785;47.946;20.540;2022-12-07T05:22:37;11.77;;;6.97;;
67585;SDS011;55785;47.946;20.540;2022-12-07T05:25:03;13.23;;;7.03;;
67585;SDS011;55785;47.946;20.540;2022-12-07T05:27:28;11.27;;;6.70;;
67585;SDS011;55785;47.946;20.540;2022-12-07T05:29:54;11.00;;;6.47;;
67585;SDS011;55785;47.946;20.540;2022-12-07T05:32:19;12.13;;;7.27;;
67585;SDS011;55785;47.946;20.540;2022-12-07T05:34:44;15.83;;;7.93;;
67585;SDS011;55785;47.946;20.540;2022-12-07T05:37:10;14.03;;;7.60;;
67585;SDS011;55785;47.946;20.540;2022-12-07T05:39:35;15.87;;;8.23;;
67585;SDS011;55785;47.946;20.540;2022-12-07T05:42:00;15.00;;;8.07;;
67585;SDS011;55785;47.946;20.540;2022-12-07T05:44:26;15.60;;;8.23;;
67585;SDS011;55785;47.946;20.540;2022-12-07T05:46:51;21.33;;;10.57;;
67585;SDS011;55785;47.946;20.540;2022-12-07T05:49:16;28.93;;;12.70;;
67585;SDS011;55785;47.946;20.540;2022-12-07T05:51:42;22.63;;;10.33;;
67585;SDS011;55785;47.946;20.540;2022-12-07T05:54:07;22.73;;;10.43;;
67585;SDS011;55785;47.946;20.540;2022-12-07T05:56:33;33.27;;;15.87;;
67585;SDS011;55785;47.946;20.540;2022-12-07T05:58:58;46.60;;;20.87;;
67585;SDS011;55785;47.946;20.540;2022-12-07T06:01:23;29.27;;;14.47;;
67585;SDS011;55785;47.946;20.540;2022-12-07T06:03:49;20.40;;;11.40;;
67585;SDS011;55785;47.946;20.540;2022-12-07T06:06:14;17.60;;;9.60;;
67585;SDS011;55785;47.946;20.540;2022-12-07T06:08:39;15.67;;;8.20;;
67585;SDS011;55785;47.946;20.540;2022-12-07T06:11:05;13.33;;;7.90;;
67585;SDS011;55785;47.946;20.540;2022-12-07T06:13:30;14.40;;;8.23;;
67585;SDS011;55785;47.946;20.540;2022-12-07T06:15:55;16.33;;;8.07;;
67585;SDS011;55785;47.946;20.540;2022-12-07T06:18:22;16.47;;;8.00;;
67585;SDS011;55785;47.946;20.540;2022-12-07T06:20:47;17.37;;;8.97;;
67585;SDS011;55785;47.946;20.540;2022-12-07T06:23:12;17.17;;;9.47;;
67585;SDS011;55785;47.946;20.540;2022-12-07T06:25:38;27.00;;;14.53;;
67585;SDS011;55785;47.946;20.540;2022-12-07T06:28:03;20.80;;;11.13;;
67585;SDS011;55785;47.946;20.540;2022-12-07T06:30:28;22.90;;;13.00;;
67585;SDS011;55785;47.946;20.540;2022-12-07T06:32:54;18.93;;;10.10;;
67585;SDS011;55785;47.946;20.540;2022-12-07T06:35:19;18.77;;;9.43;;
67585;SDS011;55785;47.946;20.540;2022-12-07T06:37:45;19.40;;;10.00;;
67585;SDS011;55785;47.946;20.540;2022-12-07T06:40:10;18.07;;;9.53;;
67585;SDS011;55785;47.946;20.540;2022-12-07T06:42:36;21.57;;;10.53;;
67585;SDS011;55785;47.946;20.540;2022-12-07T06:45:01;21.03;;;10.43;;
67585;SDS011;55785;47.946;20.540;2022-12-07T06:47:26;19.30;;;10.10;;
67585;SDS011;55785;47.946;20.540;2022-12-07T06:49:51;23.80;;;11.77;;
67585;SDS011;55785;47.946;20.540;2022-12-07T06:52:17;42.20;;;19.23;;
67585;SDS011;55785;47.946;20.540;2022-12-07T06:54:42;20.50;;;9.97;;
67585;SDS011;55785;47.946;20.540;2022-12-07T06:57:07;15.90;;;8.77;;
67585;SDS011;55785;47.946;20.540;2022-12-07T06:59:33;18.23;;;9.67;;
67585;SDS011;55785;47.946;20.540;2022-12-07T07:01:58;23.70;;;12.57;;
67585;SDS011;55785;47.946;20.540;2022-12-07T07:04:23;22.27;;;12.30;;
67585;SDS011;55785;47.946;20.540;2022-12-07T07:06:49;18.43;;;11.20;;
67585;SDS011;55785;47.946;20.540;2022-12-07T07:09:14;22.70;;;12.63;;
67585;SDS011;55785;47.946;20.540;2022-12-07T07:11:39;20.83;;;11.60;;
67585;SDS011;55785;47.946;20.540;2022-12-07T07:14:05;16.57;;;9.30;;
67585;SDS011;55785;47.946;20.540;2022-12-07T07:16:30;16.20;;;8.57;;
67585;SDS011;55785;47.946;20.540;2022-12-07T07:18:55;17.90;;;10.37;;
67585;SDS011;55785;47.946;20.540;2022-12-07T07:21:20;18.53;;;11.03;;
67585;SDS011;55785;47.946;20.540;2022-12-07T07:23:46;21.30;;;11.53;;
67585;SDS011;55785;47.946;20.540;2022-12-07T07:26:11;23.13;;;11.00;;
67585;SDS011;55785;47.946;20.540;2022-12-07T07:28:36;16.63;;;8.83;;
67585;SDS011;55785;47.946;20.540;2022-12-07T07:31:02;21.80;;;11.27;;
67585;SDS011;55785;47.946;20.540;2022-12-07T07:33:27;17.20;;;9.30;;
67585;SDS011;55785;47.946;20.540;2022-12-07T07:35:52;18.80;;;10.07;;
67585;SDS011;55785;47.946;20.540;2022-12-07T07:38:17;15.63;;;8.70;;
67585;SDS011;55785;47.946;20.540;2022-12-07T07:40:42;18.10;;;9.97;;
67585;SDS011;55785;47.946;20.540;2022-12-07T07:43:08;17.93;;;9.87;;
67585;SDS011;55785;47.946;20.540;2022-12-07T07:45:33;17.63;;;10.30;;
67585;SDS011;55785;47.946;20.540;2022-12-07T07:47:58;19.73;;;9.93;;
67585;SDS011;55785;47.946;20.540;2022-12-07T07:50:23;15.63;;;8.93;;
67585;SDS011;55785;47.946;20.540;2022-12-07T07:52:49;16.47;;;9.07;;
67585;SDS011;55785;47.946;20.540;2022-12-07T07:55:14;14.30;;;8.20;;
67585;SDS011;55785;47.946;20.540;2022-12-07T07:57:39;19.77;;;9.80;;
67585;SDS011;55785;47.946;20.540;2022-12-07T08:00:07;20.97;;;9.90;;
67585;SDS011;55785;47.946;20.540;2022-12-07T08:02:32;17.23;;;9.00;;
67585;SDS011;55785;47.946;20.540;2022-12-07T08:04:58;16.67;;;9.30;;
67585;SDS011;55785;47.946;20.540;2022-12-07T08:07:23;14.03;;;8.03;;
67585;SDS011;55785;47.946;20.540;2022-12-07T08:09:48;14.80;;;7.90;;
67585;SDS011;55785;47.946;20.540;2022-12-07T08:12:13;16.53;;;8.67;;
67585;SDS011;55785;47.946;20.540;2022-12-07T08:14:38;16.83;;;8.93;;
67585;SDS011;55785;47.946;20.540;2022-12-07T08:17:04;18.13;;;8.90;;
67585;SDS011;55785;47.946;20.540;2022-12-07T08:19:29;16.20;;;8.57;;
67585;SDS011;55785;47.946;20.540;2022-12-07T08:21:54;15.13;;;7.83;;
67585;SDS011;55785;47.946;20.540;2022-12-07T08:24:20;14.07;;;8.03;;
67585;SDS011;55785;47.946;20.540;2022-12-07T08:26:45;14.30;;;8.47;;
67585;SDS011;55785;47.946;20.540;2022-12-07T08:29:10;20.23;;;10.60;;
67585;SDS011;55785;47.946;20.540;2022-12-07T08:31:35;20.37;;;10.37;;
67585;SDS011;55785;47.946;20.540;2022-12-07T08:34:00;16.40;;;8.80;;
67585;SDS011;55785;47.946;20.540;2022-12-07T08:36:26;17.90;;;9.77;;
67585;SDS011;55785;47.946;20.540;2022-12-07T08:38:51;20.03;;;9.97;;
67585;SDS011;55785;47.946;20.540;2022-12-07T08:41:16;17.10;;;8.90;;
67585;SDS011;55785;47.946;20.540;2022-12-07T08:43:41;15.23;;;8.30;;
67585;SDS011;55785;47.946;20.540;2022-12-07T08:46:13;15.10;;;8.27;;
67585;SDS011;55785;47.946;20.540;2022-12-07T08:48:46;16.33;;;9.07;;
67585;SDS011;55785;47.946;20.540;2022-12-07T08:51:13;17.00;;;8.83;;
67585;SDS011;55785;47.946;20.540;2022-12-07T08:53:39;13.30;;;7.83;;
67585;SDS011;55785;47.946;20.540;2022-12-07T08:56:04;12.30;;;7.57;;
67585;SDS011;55785;47.946;20.540;2022-12-07T08:58:30;20.17;;;10.97;;
67585;SDS011;55785;47.946;20.540;2022-12-07T09:00:56;13.13;;;7.83;;
67585;SDS011;55785;47.946;20.540;2022-12-07T09:03:21;11.63;;;6.67;;
67585;SDS011;55785;47.946;20.540;2022-12-07T09:05:47;14.13;;;7.73;;
67585;SDS011;55785;47.946;20.540;2022-12-07T09:08:12;22.50;;;11.27;;
67585;SDS011;55785;47.946;20.540;2022-12-07T09:10:37;12.27;;;7.70;;
67585;SDS011;55785;47.946;20.540;2022-12-07T09:13:02;12.97;;;7.50;;
67585;SDS011;55785;47.946;20.540;2022-12-07T09:15:28;17.03;;;8.20;;
67585;SDS011;55785;47.946;20.540;2022-12-07T09:17:53;19.00;;;9.83;;
67585;SDS011;55785;47.946;20.540;2022-12-07T09:20:19;14.33;;;8.20;;
67585;SDS011;55785;47.946;20.540;2022-12-07T09:22:44;13.67;;;8.90;;
67585;SDS011;55785;47.946;20.540;2022-12-07T09:25:09;12.73;;;7.00;;
67585;SDS011;55785;47.946;20.540;2022-12-07T09:27:34;10.33;;;6.90;;
67585;SDS011;55785;47.946;20.540;2022-12-07T09:30:00;10.60;;;6.70;;
67585;SDS011;55785;47.946;20.540;2022-12-07T09:32:25;31.70;;;15.87;;
67585;SDS011;55785;47.946;20.540;2022-12-07T09:34:50;44.70;;;20.57;;
67585;SDS011;55785;47.946;20.540;2022-12-07T09:37:15;34.03;;;16.83;;
67585;SDS011;55785;47.946;20.540;2022-12-07T09:39:40;12.13;;;7.87;;
67585;SDS011;55785;47.946;20.540;2022-12-07T09:42:06;11.47;;;7.07;;
67585;SDS011;55785;47.946;20.540;2022-12-07T09:44:32;13.47;;;7.67;;
67585;SDS011;55785;47.946;20.540;2022-12-07T09:46:57;17.57;;;9.80;;
67585;SDS011;55785;47.946;20.540;2022-12-07T09:49:23;13.67;;;8.43;;
67585;SDS011;55785;47.946;20.540;2022-12-07T09:51:57;11.23;;;7.80;;
67585;SDS011;55785;47.946;20.540;2022-12-07T09:54:24;11.73;;;7.13;;
67585;SDS011;55785;47.946;20.540;2022-12-07T09:56:49;8.77;;;5.83;;
67585;SDS011;55785;47.946;20.540;2022-12-07T09:59:17;9.37;;;5.90;;
67585;SDS011;55785;47.946;20.540;2022-12-07T10:01:43;8.30;;;5.60;;
67585;SDS011;55785;47.946;20.540;2022-12-07T10:04:10;8.80;;;5.43;;
67585;SDS011;55785;47.946;20.540;2022-12-07T10:06:36;9.13;;;5.90;;
67585;SDS011;55785;47.946;20.540;2022-12-07T10:09:01;8.50;;;5.73;;
67585;SDS011;55785;47.946;20.540;2022-12-07T10:11:26;10.03;;;6.10;;
67585;SDS011;55785;47.946;20.540;2022-12-07T10:13:52;9.30;;;5.77;;
67585;SDS011;55785;47.946;20.540;2022-12-07T10:18:45;7.67;;;4.90;;
67585;SDS011;55785;47.946;20.540;2022-12-07T10:21:11;8.33;;;5.63;;
67585;SDS011;55785;47.946;20.540;2022-12-07T10:23:38;10.10;;;6.47;;
67585;SDS011;55785;47.946;20.540;2022-12-07T10:31:39;11.07;;;6.17;;
67585;SDS011;55785;47.946;20.540;2022-12-07T10:34:21;12.53;;;7.13;;
67585;SDS011;55785;47.946;20.540;2022-12-07T10:36:46;10.23;;;6.40;;
67585;SDS011;55785;47.946;20.540;2022-12-07T10:39:16;10.90;;;6.60;;
67585;SDS011;55785;47.946;20.540;2022-12-07T10:41:55;8.60;;;5.83;;
67585;SDS011;55785;47.946;20.540;2022-12-07T10:44:21;12.73;;;7.03;;
67585;SDS011;55785;47.946;20.540;2022-12-07T10:51:46;9.00;;;5.67;;
67585;SDS011;55785;47.946;20.540;2022-12-07T10:57:27;8.73;;;5.20;;
67585;SDS011;55785;47.946;20.540;2022-12-07T11:00:00;8.07;;;5.00;;
67585;SDS011;55785;47.946;20.540;2022-12-07T11:02:36;6.77;;;4.30;;
67585;SDS011;55785;47.946;20.540;2022-12-07T11:05:06;9.37;;;4.80;;
67585;SDS011;55785;47.946;20.540;2022-12-07T11:18:13;7.18;;;4.00;;
67585;SDS011;55785;47.946;20.540;2022-12-07T11:31:38;5.65;;;4.10;;
67585;SDS011;55785;47.946;20.540;2022-12-07T11:34:24;4.57;;;3.30;;
67585;SDS011;55785;47.946;20.540;2022-12-07T11:37:02;4.57;;;3.40;;
67585;SDS011;55785;47.946;20.540;2022-12-07T11:39:35;5.13;;;3.40;;
67585;SDS011;55785;47.946;20.540;2022-12-07T11:42:05;6.85;;;3.78;;
67585;SDS011;55785;47.946;20.540;2022-12-07T11:44:39;7.20;;;4.72;;
67585;SDS011;55785;47.946;20.540;2022-12-07T11:53:03;4.72;;;3.28;;
67585;SDS011;55785;47.946;20.540;2022-12-07T12:03:45;6.13;;;3.63;;
67585;SDS011;55785;47.946;20.540;2022-12-07T12:06:13;7.30;;;4.22;;
67585;SDS011;55785;47.946;20.540;2022-12-07T12:08:43;6.63;;;4.00;;
67585;SDS011;55785;47.946;20.540;2022-12-07T12:11:19;4.18;;;2.83;;
67585;SDS011;55785;47.946;20.540;2022-12-07T12:22:18;8.00;;;3.97;;
67585;SDS011;55785;47.946;20.540;2022-12-07T12:24:46;4.30;;;2.50;;
67585;SDS011;55785;47.946;20.540;2022-12-07T12:27:30;5.27;;;3.07;;
67585;SDS011;55785;47.946;20.540;2022-12-07T12:29:59;8.43;;;4.20;;
67585;SDS011;55785;47.946;20.540;2022-12-07T12:32:33;5.83;;;3.07;;
67585;SDS011;55785;47.946;20.540;2022-12-07T12:35:20;3.33;;;2.23;;
67585;SDS011;55785;47.946;20.540;2022-12-07T12:37:54;2.80;;;2.10;;
67585;SDS011;55785;47.946;20.540;2022-12-07T12:42:46;3.67;;;2.00;;
67585;SDS011;55785;47.946;20.540;2022-12-07T12:48:00;3.17;;;2.17;;
67585;SDS011;55785;47.946;20.540;2022-12-07T12:50:27;6.73;;;2.87;;
67585;SDS011;55785;47.946;20.540;2022-12-07T12:53:02;6.37;;;3.10;;
67585;SDS011;55785;47.946;20.540;2022-12-07T12:55:49;9.90;;;4.50;;
67585;SDS011;55785;47.946;20.540;2022-12-07T12:58:32;8.03;;;3.73;;
67585;SDS011;55785;47.946;20.540;2022-12-07T13:28:40;8.67;;;4.70;;
67585;SDS011;55785;47.946;20.540;2022-12-07T13:33:55;5.40;;;3.23;;
67585;SDS011;55785;47.946;20.540;2022-12-07T13:36:22;4.97;;;3.27;;
67585;SDS011;55785;47.946;20.540;2022-12-07T13:38:49;4.90;;;2.53;;
67585;SDS011;55785;47.946;20.540;2022-12-07T13:41:26;6.07;;;4.47;;
67585;SDS011;55785;47.946;20.540;2022-12-07T13:44:02;4.87;;;3.50;;
67585;SDS011;55785;47.946;20.540;2022-12-07T13:49:02;3.67;;;2.10;;
67585;SDS011;55785;47.946;20.540;2022-12-07T13:51:40;3.57;;;2.40;;
67585;SDS011;55785;47.946;20.540;2022-12-07T13:54:09;3.53;;;1.93;;
67585;SDS011;55785;47.946;20.540;2022-12-07T13:56:36;5.40;;;3.20;;
67585;SDS011;55785;47.946;20.540;2022-12-07T13:59:02;7.10;;;3.70;;
67585;SDS011;55785;47.946;20.540;2022-12-07T14:01:32;8.33;;;4.40;;
67585;SDS011;55785;47.946;20.540;2022-12-07T14:06:56;3.40;;;2.30;;
67585;SDS011;55785;47.946;20.540;2022-12-07T14:09:23;8.00;;;3.70;;
67585;SDS011;55785;47.946;20.540;2022-12-07T14:11:50;8.10;;;3.93;;
67585;SDS011;55785;47.946;20.540;2022-12-07T14:14:18;6.63;;;2.60;;
67585;SDS011;55785;47.946;20.540;2022-12-07T14:19:41;7.23;;;3.80;;
67585;SDS011;55785;47.946;20.540;2022-12-07T14:24:58;3.80;;;2.63;;
67585;SDS011;55785;47.946;20.540;2022-12-07T14:27:30;4.23;;;2.60;;
67585;SDS011;55785;47.946;20.540;2022-12-07T14:29:57;24.57;;;11.17;;
67585;SDS011;55785;47.946;20.540;2022-12-07T14:32:24;7.40;;;3.50;;
67585;SDS011;55785;47.946;20.540;2022-12-07T14:35:08;7.03;;;4.27;;
67585;SDS011;55785;47.946;20.540;2022-12-07T14:37:36;7.73;;;4.93;;
67585;SDS011;55785;47.946;20.540;2022-12-07T14:40:02;9.57;;;5.20;;
67585;SDS011;55785;47.946;20.540;2022-12-07T14:42:28;3.70;;;2.27;;
67585;SDS011;55785;47.946;20.540;2022-12-07T14:44:55;6.53;;;2.83;;
67585;SDS011;55785;47.946;20.540;2022-12-07T14:47:21;16.27;;;6.17;;
67585;SDS011;55785;47.946;20.540;2022-12-07T14:49:47;23.77;;;10.83;;
67585;SDS011;55785;47.946;20.540;2022-12-07T14:52:19;7.13;;;3.93;;
67585;SDS011;55785;47.946;20.540;2022-12-07T14:54:46;76.13;;;32.03;;
67585;SDS011;55785;47.946;20.540;2022-12-07T14:57:11;20.83;;;9.67;;
67585;SDS011;55785;47.946;20.540;2022-12-07T14:59:37;17.77;;;7.60;;
67585;SDS011;55785;47.946;20.540;2022-12-07T15:02:03;34.30;;;13.77;;
67585;SDS011;55785;47.946;20.540;2022-12-07T15:04:29;14.13;;;6.97;;
67585;SDS011;55785;47.946;20.540;2022-12-07T15:06:58;8.93;;;5.17;;
67585;SDS011;55785;47.946;20.540;2022-12-07T15:09:25;5.90;;;3.60;;
67585;SDS011;55785;47.946;20.540;2022-12-07T15:11:51;27.33;;;9.93;;
67585;SDS011;55785;47.946;20.540;2022-12-07T15:14:16;10.73;;;5.27;;
67585;SDS011;55785;47.946;20.540;2022-12-07T15:16:42;5.33;;;3.90;;
67585;SDS011;55785;47.946;20.540;2022-12-07T15:19:15;18.60;;;8.83;;
67585;SDS011;55785;47.946;20.540;2022-12-07T15:21:45;9.40;;;4.17;;
67585;SDS011;55785;47.946;20.540;2022-12-07T15:24:11;37.33;;;13.20;;
67585;SDS011;55785;47.946;20.540;2022-12-07T15:26:38;13.90;;;5.63;;
67585;SDS011;55785;47.946;20.540;2022-12-07T15:29:05;11.90;;;4.93;;
67585;SDS011;55785;47.946;20.540;2022-12-07T15:31:30;8.83;;;4.43;;
67585;SDS011;55785;47.946;20.540;2022-12-07T15:33:56;8.33;;;4.90;;
67585;SDS011;55785;47.946;20.540;2022-12-07T15:36:22;10.20;;;4.80;;
67585;SDS011;55785;47.946;20.540;2022-12-07T15:38:49;12.90;;;7.33;;
67585;SDS011;55785;47.946;20.540;2022-12-07T15:41:18;12.07;;;6.97;;
67585;SDS011;55785;47.946;20.540;2022-12-07T15:43:43;13.10;;;6.97;;
67585;SDS011;55785;47.946;20.540;2022-12-07T15:46:09;11.10;;;5.67;;
67585;SDS011;55785;47.946;20.540;2022-12-07T15:48:34;8.30;;;5.40;;
67585;SDS011;55785;47.946;20.540;2022-12-07T15:51:03;13.17;;;8.93;;
67585;SDS011;55785;47.946;20.540;2022-12-07T15:53:29;25.20;;;13.90;;
67585;SDS011;55785;47.946;20.540;2022-12-07T15:55:55;34.60;;;14.33;;
67585;SDS011;55785;47.946;20.540;2022-12-07T15:58:20;31.17;;;14.50;;
67585;SDS011;55785;47.946;20.540;2022-12-07T16:00:46;28.43;;;11.33;;
67585;SDS011;55785;47.946;20.540;2022-12-07T16:03:11;25.20;;;10.80;;
67585;SDS011;55785;47.946;20.540;2022-12-07T16:05:36;16.37;;;7.87;;
67585;SDS011;55785;47.946;20.540;2022-12-07T16:08:02;11.30;;;6.07;;
67585;SDS011;55785;47.946;20.540;2022-12-07T16:10:27;8.07;;;4.70;;
67585;SDS011;55785;47.946;20.540;2022-12-07T16:12:52;13.60;;;7.20;;
67585;SDS011;55785;47.946;20.540;2022-12-07T16:15:17;13.53;;;7.53;;
67585;SDS011;55785;47.946;20.540;2022-12-07T16:17:43;13.83;;;6.00;;
67585;SDS011;55785;47.946;20.540;2022-12-07T16:20:08;18.30;;;8.47;;
67585;SDS011;55785;47.946;20.540;2022-12-07T16:22:35;13.13;;;5.90;;
67585;SDS011;55785;47.946;20.540;2022-12-07T16:25:00;12.47;;;6.03;;
67585;SDS011;55785;47.946;20.540;2022-12-07T16:27:26;8.47;;;4.93;;
67585;SDS011;55785;47.946;20.540;2022-12-07T16:29:51;11.43;;;5.93;;
67585;SDS011;55785;47.946;20.540;2022-12-07T16:32:16;11.50;;;6.77;;
67585;SDS011;55785;47.946;20.540;2022-12-07T16:34:42;12.07;;;5.93;;
67585;SDS011;55785;47.946;20.540;2022-12-07T16:37:07;9.30;;;5.10;;
67585;SDS011;55785;47.946;20.540;2022-12-07T16:39:32;10.53;;;5.57;;
67585;SDS011;55785;47.946;20.540;2022-12-07T16:41:58;7.73;;;4.80;;
67585;SDS011;55785;47.946;20.540;2022-12-07T16:44:23;8.30;;;4.90;;
67585;SDS011;55785;47.946;20.540;2022-12-07T16:46:49;10.63;;;5.90;;
67585;SDS011;55785;47.946;20.540;2022-12-07T16:49:15;13.30;;;6.70;;